Eastham, Massachusetts
Current Conditions -  °F | °C
As of 8:52 PM on Wednesday 22 Oct 2014 (Local Time) from KCQX Reporting Station
Haze Haze  
Wind Chill: 57°   Ceiling: 400
Heat Index: 57°   Visibility: 5mi
Dew Point: 57°   Wind: 20mph
Humidity: 100%   Direction: 50°NE
Pressure: 29.73"   Gusts: 29mph
Location:  41.83°N, 69.97°W
Report Text: KCQX 230052Z AUTO 05017G25KT 5SM BR OVC004 14/14 A2973 RMK AO2 PK WND 05031/0014 RAB11E35 SLP068 P0004 T01390139
Loading
Personal Weather Stations






























Interactive Weather Map
Tropical Storm Tracking
New forecast layout! Learn more

10-Day Weather Forecast

Advertisements
Track Severe Weather on mobile